Time;durP1;ratioP1;P1;durP2;ratioP2;P2;SDS_P1;SDS_P2;PMS_P1;PMS_P2;Temp;Humidity;BMP_temperature;BMP_pressure;BME280_temperature;BME280_humidity;BME280_pressure;Samples;Min_cycle;Max_cycle;Signal;HPM_P1;HPM_P2
2023/01/25 00:00:37;;;;;;;;;;;2.10;99.90;;;;;;5092905;28;19913;-69
2023/01/25 00:03:02;;;;;;;;;;;2.00;99.90;;;;;;5090747;28;20078;-69
2023/01/25 00:05:28;;;;;;;;;;;2.00;99.90;;;;;;5091127;28;20371;-69
2023/01/25 00:07:54;;;;;;;;;;;2.00;99.90;;;;;;5091153;28;19912;-69
2023/01/25 00:10:20;;;;;;;;;;;1.90;99.90;;;;;;5092431;28;19924;-69
2023/01/25 00:12:45;;;;;;;;;;;1.90;99.90;;;;;;5093093;28;19965;-69
2023/01/25 00:15:11;;;;;;;;;;;1.90;99.90;;;;;;5094178;28;19916;-69
2023/01/25 00:17:36;;;;;;;;;;;1.90;99.90;;;;;;5093725;28;19916;-69
2023/01/25 00:20:02;;;;;;;;;;;2.00;99.90;;;;;;5092664;28;20011;-69
2023/01/25 00:22:28;;;;;;;;;;;2.00;99.90;;;;;;5093838;28;20448;-69
2023/01/25 00:24:56;;;;;;;;;;;2.00;99.90;;;;;;5093957;28;19912;-69
2023/01/25 00:27:22;;;;;;;;;;;2.00;99.90;;;;;;5094140;28;19947;-69
2023/01/25 00:29:47;;;;;;;;;;;1.90;99.90;;;;;;5093988;28;19963;-69
2023/01/25 00:32:13;;;;;;;;;;;1.90;99.90;;;;;;5094308;28;19912;-69
2023/01/25 00:34:43;;;;;;;;;;;1.90;99.90;;;;;;5093166;28;19919;-69
2023/01/25 00:37:11;;;;;;;;;;;2.00;99.90;;;;;;5094357;28;20528;-69
2023/01/25 00:39:38;;;;;;;;;;;2.00;99.90;;;;;;5092982;28;19913;-69
2023/01/25 00:42:04;;;;;;;;;;;2.10;99.90;;;;;;5092525;28;19921;-69
2023/01/25 00:44:29;;;;;;;;;;;2.10;99.90;;;;;;5093869;28;20244;-69
2023/01/25 00:46:55;;;;;;;;;;;2.00;99.90;;;;;;5093637;28;19912;-69
2023/01/25 00:49:21;;;;;;;;;;;2.00;99.90;;;;;;5093113;28;19927;-69
2023/01/25 00:51:47;;;;;;;;;;;2.10;99.90;;;;;;5091983;28;19912;-69
2023/01/25 00:54:12;;;;;;;;;;;2.00;99.90;;;;;;5094804;28;19995;-69
2023/01/25 00:56:38;;;;;;;;;;;;;;;;;;5096808;28;19920;-70
2023/01/25 00:59:04;;;;;;;;;;;2.10;99.90;;;;;;5096883;28;19912;-69
2023/01/25 01:01:29;;;;;;;;;;;2.10;99.90;;;;;;5097289;28;19912;-69
2023/01/25 01:03:55;;;;;;;;;;;2.10;99.90;;;;;;5097306;28;19912;-69
2023/01/25 01:06:20;;;;;;;;;;;2.10;99.90;;;;;;5096319;28;19912;-69
2023/01/25 01:08:46;;;;;;;;;;;2.10;99.90;;;;;;5096056;28;19951;-69
2023/01/25 01:11:12;;;;;;;;;;;2.10;99.90;;;;;;5096336;28;19916;-69
2023/01/25 01:13:38;;;;;;;;;;;2.10;99.90;;;;;;5097609;28;20070;-69
2023/01/25 01:16:06;;;;;;;;;;;2.00;99.90;;;;;;5097651;28;19920;-69
2023/01/25 01:18:36;;;;;;;;;;;2.00;99.90;;;;;;5093919;28;19916;-69
2023/01/25 01:21:02;;;;;;;;;;;2.00;99.90;;;;;;5097081;28;19919;-69
2023/01/25 01:23:28;;;;;;;;;;;1.90;99.90;;;;;;5097556;28;19916;-69
2023/01/25 01:25:53;;;;;;;;;;;1.90;99.90;;;;;;5097630;28;20007;-69
2023/01/25 01:28:19;;;;;;;;;;;1.90;99.90;;;;;;5097143;28;19958;-69
2023/01/25 01:30:44;;;;;;;;;;;1.90;99.90;;;;;;5097365;28;19920;-69
2023/01/25 01:33:10;;;;;;;;;;;1.90;99.90;;;;;;5096269;28;20283;-69
2023/01/25 01:35:36;;;;;;;;;;;2.00;99.90;;;;;;5097246;28;19912;-69
2023/01/25 01:38:01;;;;;;;;;;;1.90;99.90;;;;;;5097328;28;19916;-69
2023/01/25 01:40:27;;;;;;;;;;;1.90;99.90;;;;;;5097225;28;20355;-69
2023/01/25 01:43:04;;;;;;;;;;;1.90;99.90;;;;;;5097404;28;19912;-69
2023/01/25 01:45:48;;;;;;;;;;;1.80;99.90;;;;;;5097484;28;19912;-69
2023/01/25 01:48:28;;;;;;;;;;;1.80;99.90;;;;;;5096185;28;19912;-69
2023/01/25 01:50:57;;;;;;;;;;;1.80;99.90;;;;;;5097681;28;19927;-69
2023/01/25 01:53:23;;;;;;;;;;;1.80;99.90;;;;;;5095675;28;19912;-69
2023/01/25 01:55:50;;;;;;;;;;;1.80;99.90;;;;;;5095379;28;19912;-69
2023/01/25 01:58:16;;;;;;;;;;;1.90;99.90;;;;;;5096740;28;20252;-69
2023/01/25 02:00:42;;;;;;;;;;;1.90;99.90;;;;;;5096539;28;20002;-69
2023/01/25 02:03:08;;;;;;;;;;;1.90;99.90;;;;;;5095837;28;19959;-69
2023/01/25 02:05:41;;;;;;;;;;;1.80;99.90;;;;;;5091366;28;20006;-69
2023/01/25 02:08:09;;;;;;;;;;;1.80;99.90;;;;;;5110044;27;19916;-69
2023/01/25 02:10:35;;;;;;;;;;;1.80;99.90;;;;;;5096202;28;19920;-69
2023/01/25 02:13:01;;;;;;;;;;;1.80;99.90;;;;;;5095470;28;19912;-69
2023/01/25 02:15:27;;;;;;;;;;;1.80;99.90;;;;;;5096390;28;19919;-69
2023/01/25 02:17:53;;;;;;;;;;;1.70;99.90;;;;;;5096555;28;19923;-69
2023/01/25 02:20:36;;;;;;;;;;;1.70;99.90;;;;;;5095925;28;19912;-69
2023/01/25 02:23:20;;;;;;;;;;;1.70;99.90;;;;;;5096293;28;19919;-69
2023/01/25 02:25:46;;;;;;;;;;;1.70;99.90;;;;;;5096199;28;20028;-69
2023/01/25 02:28:23;;;;;;;;;;;1.80;99.90;;;;;;5096112;28;20012;-69
2023/01/25 02:30:49;;;;;;;;;;;1.70;99.90;;;;;;5095767;28;20282;-69
2023/01/25 02:33:14;;;;;;;;;;;1.70;99.90;;;;;;5096090;28;19912;-69
2023/01/25 02:35:44;;;;;;;;;;;1.80;99.90;;;;;;5094385;28;19985;-69
2023/01/25 02:38:15;;;;;;;;;;;1.80;99.90;;;;;;5094569;28;19919;-69
2023/01/25 02:40:48;;;;;;;;;;;1.80;99.90;;;;;;5095750;28;19912;-69
2023/01/25 02:43:14;;;;;;;;;;;1.70;99.90;;;;;;5096139;28;19912;-69
2023/01/25 02:45:42;;;;;;;;;;;1.70;99.90;;;;;;5095888;28;19912;-69
2023/01/25 02:48:08;;;;;;;;;;;1.70;99.90;;;;;;5094717;28;20003;-69
2023/01/25 02:50:33;;;;;;;;;;;1.70;99.90;;;;;;5094778;28;20011;-70
2023/01/25 02:52:59;;;;;;;;;;;1.80;99.90;;;;;;5095730;28;19916;-69
2023/01/25 02:55:24;;;;;;;;;;;1.70;99.90;;;;;;5094036;28;19912;-69
2023/01/25 02:57:50;;;;;;;;;;;1.80;99.90;;;;;;5095629;28;20287;-69
2023/01/25 03:00:16;;;;;;;;;;;1.70;99.90;;;;;;5095546;28;20003;-69
2023/01/25 03:02:41;;;;;;;;;;;1.70;99.90;;;;;;5095269;28;20405;-69
2023/01/25 03:05:07;;;;;;;;;;;1.70;99.90;;;;;;5095234;28;19912;-69
2023/01/25 03:07:32;;;;;;;;;;;1.70;99.90;;;;;;5095191;28;19916;-69
2023/01/25 03:09:58;;;;;;;;;;;1.60;99.90;;;;;;5094127;28;20394;-70
2023/01/25 03:12:24;;;;;;;;;;;1.70;99.90;;;;;;5094669;28;19965;-69
2023/01/25 03:14:49;;;;;;;;;;;1.70;99.90;;;;;;5095647;28;19919;-69
2023/01/25 03:17:15;;;;;;;;;;;1.70;99.90;;;;;;5093767;28;19938;-69
2023/01/25 03:19:40;;;;;;;;;;;1.70;99.90;;;;;;5095439;28;19912;-69
2023/01/25 03:22:06;;;;;;;;;;;1.70;99.90;;;;;;5094565;28;19975;-69
2023/01/25 03:24:31;;;;;;;;;;;1.80;99.90;;;;;;5095131;28;19947;-69
2023/01/25 03:27:09;;;;;;;;;;;1.70;99.90;;;;;;5095114;28;19912;-69
2023/01/25 03:29:35;;;;;;;;;;;1.80;99.90;;;;;;5093488;28;19916;-69
2023/01/25 03:32:00;;;;;;;;;;;1.80;99.90;;;;;;5094618;28;20327;-69
2023/01/25 03:34:26;;;;;;;;;;;1.80;99.90;;;;;;5095147;28;20391;-69
2023/01/25 03:36:52;;;;;;;;;;;1.80;99.90;;;;;;5095193;28;19926;-69
2023/01/25 03:39:17;;;;;;;;;;;1.80;99.90;;;;;;5095183;28;20465;-69
2023/01/25 03:41:43;;;;;;;;;;;1.70;99.90;;;;;;5094407;28;20003;-69
2023/01/25 03:44:10;;;;;;;;;;;1.70;99.90;;;;;;5094992;28;19912;-69
2023/01/25 03:46:36;;;;;;;;;;;1.60;99.90;;;;;;5094425;28;19954;-69
2023/01/25 03:49:02;;;;;;;;;;;1.60;99.90;;;;;;5094066;28;19919;-69
2023/01/25 03:51:27;;;;;;;;;;;1.70;99.90;;;;;;5093231;28;19916;-69
2023/01/25 03:53:53;;;;;;;;;;;1.70;99.90;;;;;;5094861;28;19912;-69
2023/01/25 03:56:19;;;;;;;;;;;1.60;99.90;;;;;;5094598;28;19912;-69
2023/01/25 03:58:45;;;;;;;;;;;1.50;99.90;;;;;;5094755;28;20046;-69
2023/01/25 04:01:10;;;;;;;;;;;1.60;99.90;;;;;;5093574;28;19919;-69
2023/01/25 04:03:36;;;;;;;;;;;1.50;99.90;;;;;;5092165;28;19919;-69
2023/01/25 04:06:02;;;;;;;;;;;1.50;99.90;;;;;;5093166;28;19923;-69
2023/01/25 04:08:28;;;;;;;;;;;1.50;99.90;;;;;;5094438;28;19970;-69
2023/01/25 04:10:54;;;;;;;;;;;1.50;99.90;;;;;;5093988;28;19956;-69
2023/01/25 04:13:21;;;;;;;;;;;1.50;99.90;;;;;;5094546;28;19947;-69
2023/01/25 04:15:47;;;;;;;;;;;1.50;99.90;;;;;;5094627;28;19912;-69
2023/01/25 04:18:12;;;;;;;;;;;1.50;99.90;;;;;;5094213;28;20002;-69
2023/01/25 04:20:38;;;;;;;;;;;1.50;99.90;;;;;;5057187;28;19913;-69
2023/01/25 04:23:05;;;;;;;;;;;1.50;99.90;;;;;;5074458;28;19912;-69
2023/01/25 04:25:31;;;;;;;;;;;1.60;99.90;;;;;;5074225;28;19912;-69
2023/01/25 04:27:57;;;;;;;;;;;1.60;99.90;;;;;;5056321;28;19920;-69
2023/01/25 04:30:22;;;;;;;;;;;1.50;99.90;;;;;;5073578;28;20352;-69
2023/01/25 04:32:48;;;;;;;;;;;1.40;99.90;;;;;;5055975;28;19920;-69
2023/01/25 04:35:14;;;;;;;;;;;1.40;99.90;;;;;;5056141;28;19913;-69
2023/01/25 04:37:39;;;;;;;;;;;1.40;99.90;;;;;;5073960;28;20291;-69
2023/01/25 04:40:05;;;;;;;;;;;1.40;99.90;;;;;;5073510;28;19919;-69
2023/01/25 04:42:31;;;;;;;;;;;1.40;99.90;;;;;;5055718;28;20276;-69
2023/01/25 04:44:56;;;;;;;;;;;1.40;99.90;;;;;;5053622;28;19913;-69
2023/01/25 04:47:22;;;;;;;;;;;1.50;99.90;;;;;;5033633;28;19925;-69
2023/01/25 04:49:48;;;;;;;;;;;1.50;99.90;;;;;;5057699;28;19963;-69
2023/01/25 04:52:13;;;;;;;;;;;1.40;99.90;;;;;;5052709;28;19995;-69
2023/01/25 04:54:39;;;;;;;;;;;1.30;99.90;;;;;;5053828;28;19912;-69
2023/01/25 04:57:04;;;;;;;;;;;1.40;99.90;;;;;;5053772;28;20019;-69
2023/01/25 04:59:30;;;;;;;;;;;1.40;99.90;;;;;;5041920;28;19913;-69
2023/01/25 05:01:55;;;;;;;;;;;1.50;99.90;;;;;;5053721;28;19912;-69
2023/01/25 05:04:21;;;;;;;;;;;1.40;99.90;;;;;;5053680;28;20291;-69
2023/01/25 05:06:46;;;;;;;;;;;1.30;99.90;;;;;;5050634;28;20004;-69
2023/01/25 05:09:12;;;;;;;;;;;1.40;99.90;;;;;;5073402;28;19917;-69
2023/01/25 05:11:38;;;;;;;;;;;1.40;99.90;;;;;;5039797;28;20318;-69
2023/01/25 05:14:03;;;;;;;;;;;1.40;99.90;;;;;;5072078;28;20275;-69
2023/01/25 05:16:29;;;;;;;;;;;1.30;99.90;;;;;;5070423;28;19912;-69
2023/01/25 05:18:54;;;;;;;;;;;1.30;99.90;;;;;;5090723;28;19916;-69
2023/01/25 05:24:04;;;;;;;;;;;1.30;99.90;;;;;;5093728;28;19920;-69
2023/01/25 05:29:14;;;;;;;;;;;1.20;99.90;;;;;;5092902;28;19969;-69
2023/01/25 05:31:40;;;;;;;;;;;1.30;99.90;;;;;;5093166;28;20288;-68
2023/01/25 05:34:05;;;;;;;;;;;1.30;99.90;;;;;;5092056;28;20426;-69
2023/01/25 05:36:31;;;;;;;;;;;1.20;99.90;;;;;;5092550;28;19919;-69
2023/01/25 05:38:56;;;;;;;;;;;1.20;99.90;;;;;;5092084;28;20485;-69
2023/01/25 05:41:22;;;;;;;;;;;1.30;99.90;;;;;;5092558;28;19999;-69
2023/01/25 05:43:48;;;;;;;;;;;1.30;99.90;;;;;;5096406;28;19912;-69
2023/01/25 05:46:13;;;;;;;;;;;1.40;99.90;;;;;;5096606;28;19912;-70
2023/01/25 05:48:39;;;;;;;;;;;1.40;99.90;;;;;;5094747;28;19912;-69
2023/01/25 05:51:05;;;;;;;;;;;1.40;99.90;;;;;;5094567;28;19943;-70
2023/01/25 05:53:31;;;;;;;;;;;1.40;99.90;;;;;;5095111;28;19919;-70
2023/01/25 05:56:02;;;;;;;;;;;1.40;99.90;;;;;;5093497;28;20282;-70
2023/01/25 05:58:28;;;;;;;;;;;1.40;99.90;;;;;;5094668;28;19916;-70
2023/01/25 06:00:53;;;;;;;;;;;1.40;99.90;;;;;;5093611;28;19919;-70
2023/01/25 06:03:19;;;;;;;;;;;1.40;99.90;;;;;;5095366;28;20359;-70
2023/01/25 06:05:44;;;;;;;;;;;1.40;99.90;;;;;;5094458;28;19912;-69
2023/01/25 06:08:10;;;;;;;;;;;1.50;99.90;;;;;;5092908;28;19998;-69
2023/01/25 06:10:36;;;;;;;;;;;1.50;99.90;;;;;;5083411;28;20382;-69
2023/01/25 06:13:01;;;;;;;;;;;1.40;99.90;;;;;;5075627;28;19924;-70
2023/01/25 06:15:27;;;;;;;;;;;1.40;99.90;;;;;;5075670;28;20348;-69
2023/01/25 06:17:55;;;;;;;;;;;1.40;99.90;;;;;;5076675;28;19917;-70
2023/01/25 06:20:21;;;;;;;;;;;1.40;99.90;;;;;;5089120;28;20309;-70
2023/01/25 06:22:50;;;;;;;;;;;1.30;99.90;;;;;;5096696;28;19962;-69
2023/01/25 06:25:16;;;;;;;;;;;1.30;99.90;;;;;;5095747;28;19920;-69
2023/01/25 06:27:41;;;;;;;;;;;1.30;99.90;;;;;;5094715;28;20279;-70
2023/01/25 06:30:07;;;;;;;;;;;1.30;99.90;;;;;;5093303;28;20417;-69
2023/01/25 06:32:33;;;;;;;;;;;1.30;99.90;;;;;;5092881;28;19956;-70
2023/01/25 06:34:58;;;;;;;;;;;1.20;99.90;;;;;;5094903;28;20347;-70
2023/01/25 06:37:24;;;;;;;;;;;1.20;99.90;;;;;;5093082;28;19958;-70
2023/01/25 06:39:49;;;;;;;;;;;1.20;99.90;;;;;;5095847;28;20028;-70
2023/01/25 06:42:15;;;;;;;;;;;1.30;99.90;;;;;;5096515;28;19955;-69
2023/01/25 06:44:40;;;;;;;;;;;1.30;99.90;;;;;;5095240;28;19948;-70
2023/01/25 06:47:10;;;;;;;;;;;1.30;99.90;;;;;;5094507;28;19912;-69
2023/01/25 06:49:35;;;;;;;;;;;1.30;99.90;;;;;;5096067;28;19924;-69
2023/01/25 06:52:01;;;;;;;;;;;1.30;99.90;;;;;;5095929;28;19916;-69
2023/01/25 06:54:27;;;;;;;;;;;1.30;99.90;;;;;;5094858;28;19957;-69
2023/01/25 06:56:52;;;;;;;;;;;1.30;99.90;;;;;;5095064;28;19912;-69
2023/01/25 06:59:18;;;;;;;;;;;1.20;99.90;;;;;;5096142;28;19956;-70
2023/01/25 07:01:43;;;;;;;;;;;1.20;99.90;;;;;;5096106;28;19995;-69
2023/01/25 07:04:10;;;;;;;;;;;1.20;99.90;;;;;;5094638;28;19912;-70
2023/01/25 07:06:36;;;;;;;;;;;1.20;99.90;;;;;;5095711;28;20271;-70
2023/01/25 07:09:06;;;;;;;;;;;1.10;99.90;;;;;;5094423;28;19912;-70
2023/01/25 07:11:32;;;;;;;;;;;1.10;99.90;;;;;;5094598;28;19916;-70
2023/01/25 07:13:59;;;;;;;;;;;1.10;99.90;;;;;;5094856;28;19962;-71
2023/01/25 07:16:24;;;;;;;;;;;1.20;99.90;;;;;;5094405;28;19958;-70
2023/01/25 07:18:50;;;;;;;;;;;1.30;99.90;;;;;;5092837;28;19920;-70
2023/01/25 07:21:20;;;;;;;;;;;1.20;99.90;;;;;;5093677;28;20253;-70
2023/01/25 07:23:46;;;;;;;;;;;1.20;99.90;;;;;;5094233;28;20000;-71
2023/01/25 07:26:16;;;;;;;;;;;1.20;99.90;;;;;;5094835;28;20256;-71
2023/01/25 07:28:42;;;;;;;;;;;1.20;99.90;;;;;;5095424;28;19920;-71
2023/01/25 07:31:07;;;;;;;;;;;1.20;99.90;;;;;;5095329;28;19955;-70
2023/01/25 07:33:33;;;;;;;;;;;1.20;99.90;;;;;;5095235;28;19912;-70
2023/01/25 07:36:03;;;;;;;;;;;1.20;99.90;;;;;;5092336;28;20526;-71
2023/01/25 07:38:29;;;;;;;;;;;1.20;99.90;;;;;;5092245;28;19912;-70
2023/01/25 07:40:55;;;;;;;;;;;1.20;99.90;;;;;;5092480;28;20011;-71
2023/01/25 07:43:20;;;;;;;;;;;1.20;99.90;;;;;;5092459;28;19961;-70
2023/01/25 07:45:49;;;;;;;;;;;1.10;99.90;;;;;;5092907;28;19912;-71
2023/01/25 07:48:15;;;;;;;;;;;1.10;99.90;;;;;;5094662;28;20306;-70
2023/01/25 07:50:41;;;;;;;;;;;1.10;99.90;;;;;;5093389;28;20427;-70
2023/01/25 07:53:06;;;;;;;;;;;1.10;99.90;;;;;;5095262;28;20007;-71
2023/01/25 07:55:32;;;;;;;;;;;1.10;99.90;;;;;;5093873;28;19908;-70
2023/01/25 07:57:58;;;;;;;;;;;1.10;99.90;;;;;;5093604;28;19920;-70
2023/01/25 08:00:23;;;;;;;;;;;1.10;99.90;;;;;;5093821;28;19912;-70
2023/01/25 08:02:50;;;;;;;;;;;1.00;99.90;;;;;;5094635;28;19916;-70
2023/01/25 08:05:15;;;;;;;;;;;1.00;99.90;;;;;;5094041;28;20386;-71
2023/01/25 08:07:41;;;;;;;;;;;1.10;99.90;;;;;;5093769;28;19912;-70
2023/01/25 08:10:07;;;;;;;;;;;1.00;99.90;;;;;;5094542;28;19927;-70
2023/01/25 08:12:33;;;;;;;;;;;1.00;99.90;;;;;;5094638;28;19912;-71
2023/01/25 08:14:59;;;;;;;;;;;1.00;99.90;;;;;;5094726;28;20007;-71
2023/01/25 08:17:30;;;;;;;;;;;1.00;99.90;;;;;;5094871;28;20263;-71
2023/01/25 08:20:00;;;;;;;;;;;1.10;99.90;;;;;;5093135;28;19919;-71
2023/01/25 08:22:27;;;;;;;;;;;1.10;99.90;;;;;;5093353;28;19916;-70
2023/01/25 08:24:52;;;;;;;;;;;1.10;99.90;;;;;;5093403;28;19916;-70
2023/01/25 08:27:18;;;;;;;;;;;1.00;99.90;;;;;;5093518;28;20017;-71
2023/01/25 08:29:44;;;;;;;;;;;1.10;99.90;;;;;;5094369;28;19924;-71
2023/01/25 08:32:09;;;;;;;;;;;1.10;99.90;;;;;;5094667;28;19912;-70
2023/01/25 08:34:36;;;;;;;;;;;1.20;99.90;;;;;;5092580;28;20331;-70
2023/01/25 08:37:01;;;;;;;;;;;1.20;99.90;;;;;;5094347;28;20271;-71
2023/01/25 08:39:27;;;;;;;;;;;1.10;99.90;;;;;;5093023;28;19912;-71
2023/01/25 08:41:53;;;;;;;;;;;1.10;99.90;;;;;;5093542;28;20061;-71
2023/01/25 08:44:22;;;;;;;;;;;1.10;99.90;;;;;;5092562;28;20381;-70
2023/01/25 08:46:48;;;;;;;;;;;1.10;99.90;;;;;;5094342;28;19920;-70
2023/01/25 08:49:14;;;;;;;;;;;1.10;99.90;;;;;;5092927;28;19916;-71
2023/01/25 08:51:39;;;;;;;;;;;1.10;99.90;;;;;;5094558;28;20006;-70
2023/01/25 08:54:06;;;;;;;;;;;1.20;99.90;;;;;;5093651;28;19919;-71
2023/01/25 08:56:31;;;;;;;;;;;1.20;99.90;;;;;;5093401;28;19912;-71
2023/01/25 08:58:57;;;;;;;;;;;1.20;99.90;;;;;;5093090;28;19977;-70
2023/01/25 09:01:22;;;;;;;;;;;1.20;99.90;;;;;;5094644;28;20003;-71
2023/01/25 09:03:49;;;;;;;;;;;1.30;99.90;;;;;;5092865;28;20600;-70
2023/01/25 09:06:15;;;;;;;;;;;1.20;99.90;;;;;;5093446;28;20422;-71
2023/01/25 09:08:41;;;;;;;;;;;1.20;99.90;;;;;;5092990;28;19947;-70
2023/01/25 09:11:08;;;;;;;;;;;1.30;99.90;;;;;;5094138;28;20018;-70
2023/01/25 09:13:34;;;;;;;;;;;1.30;99.90;;;;;;5092951;28;19918;-71
2023/01/25 09:16:00;;;;;;;;;;;1.30;99.90;;;;;;5096457;28;20002;-70
2023/01/25 09:18:26;;;;;;;;;;;1.40;99.90;;;;;;5098009;28;19920;-71
2023/01/25 09:20:52;;;;;;;;;;;1.40;99.90;;;;;;5097921;28;20039;-71
2023/01/25 09:23:21;;;;;;;;;;;1.40;99.90;;;;;;5097934;28;19931;-71
2023/01/25 09:25:47;;;;;;;;;;;1.50;99.90;;;;;;5097029;28;19912;-70
2023/01/25 09:28:12;;;;;;;;;;;1.50;99.90;;;;;;5098112;28;19939;-71
2023/01/25 09:30:38;;;;;;;;;;;1.40;99.90;;;;;;5097716;28;19924;-71
2023/01/25 09:33:05;;;;;;;;;;;1.50;99.90;;;;;;5096613;28;20401;-71
2023/01/25 09:35:32;;;;;;;;;;;1.50;99.90;;;;;;5097785;28;19998;-71
2023/01/25 09:37:58;;;;;;;;;;;1.60;99.90;;;;;;5096225;28;20375;-70
2023/01/25 09:40:25;;;;;;;;;;;1.70;99.90;;;;;;5097475;28;20011;-71
2023/01/25 09:43:23;;;;;;;;;;;1.60;99.90;;;;;;5097475;28;19919;-71
2023/01/25 09:45:49;;;;;;;;;;;1.50;99.90;;;;;;5074186;28;19955;-71
2023/01/25 09:48:35;;;;;;;;;;;1.50;99.90;;;;;;5097560;28;19958;-70
2023/01/25 09:51:13;;;;;;;;;;;1.50;99.90;;;;;;5097371;28;19921;-70
2023/01/25 09:53:48;;;;;;;;;;;1.50;99.90;;;;;;5096109;28;19919;-70
2023/01/25 09:56:29;;;;;;;;;;;1.50;99.90;;;;;;5096073;28;19919;-70
2023/01/25 09:58:57;;;;;;;;;;;1.50;99.90;;;;;;5095957;28;19946;-70
2023/01/25 10:01:41;;;;;;;;;;;1.50;99.90;;;;;;5077143;28;19913;-71
2023/01/25 10:04:26;;;;;;;;;;;1.60;99.90;;;;;;5075721;28;19961;-71
2023/01/25 10:06:53;;;;;;;;;;;1.60;99.90;;;;;;5076814;28;19916;-70
2023/01/25 10:09:19;;;;;;;;;;;1.70;99.90;;;;;;5079446;28;19920;-70
2023/01/25 10:11:46;;;;;;;;;;;1.70;99.90;;;;;;5095563;28;19924;-71
2023/01/25 10:14:13;;;;;;;;;;;1.60;99.90;;;;;;5091477;28;20007;-70
2023/01/25 10:16:45;;;;;;;;;;;1.60;99.90;;;;;;5074242;28;19913;-71
2023/01/25 10:19:24;;;;;;;;;;;1.70;99.90;;;;;;5076726;28;20288;-71
2023/01/25 10:21:54;;;;;;;;;;;1.80;99.90;;;;;;5096779;28;19958;-70
2023/01/25 10:24:20;;;;;;;;;;;1.80;99.90;;;;;;5095588;28;19912;-71
2023/01/25 10:26:50;;;;;;;;;;;1.80;99.90;;;;;;5094663;28;20374;-71
2023/01/25 10:29:18;;;;;;;;;;;1.80;99.90;;;;;;5095455;28;19912;-71
2023/01/25 10:31:47;;;;;;;;;;;1.70;99.90;;;;;;5096414;28;20105;-71
2023/01/25 10:34:19;;;;;;;;;;;1.80;99.90;;;;;;5096514;28;19912;-70
2023/01/25 10:36:46;;;;;;;;;;;1.80;99.90;;;;;;5096427;28;19912;-70
2023/01/25 10:39:12;;;;;;;;;;;1.80;99.90;;;;;;5095394;28;19950;-70
2023/01/25 10:41:39;;;;;;;;;;;1.90;99.90;;;;;;5096155;28;19952;-71
2023/01/25 10:44:23;;;;;;;;;;;1.80;99.90;;;;;;5096375;28;20002;-70
2023/01/25 10:47:07;;;;;;;;;;;1.70;99.90;;;;;;5095102;28;19922;-70
2023/01/25 10:49:39;;;;;;;;;;;1.60;99.90;;;;;;5096516;28;19993;-71
2023/01/25 10:52:12;;;;;;;;;;;1.60;99.90;;;;;;5096307;28;19916;-71
2023/01/25 10:54:38;;;;;;;;;;;1.70;99.90;;;;;;5096256;28;19990;-70
2023/01/25 10:57:05;;;;;;;;;;;1.80;99.90;;;;;;5094738;28;20040;-70
2023/01/25 10:59:31;;;;;;;;;;;1.80;99.90;;;;;;5095986;28;19912;-70
2023/01/25 11:02:16;;;;;;;;;;;1.70;99.90;;;;;;5094718;28;19947;-70
2023/01/25 11:04:46;;;;;;;;;;;1.60;99.90;;;;;;5094504;28;19955;-70
2023/01/25 11:07:24;;;;;;;;;;;1.60;99.90;;;;;;5094770;28;19919;-71
2023/01/25 11:09:50;;;;;;;;;;;1.50;99.90;;;;;;5095842;28;19924;-70
2023/01/25 11:12:16;;;;;;;;;;;1.50;99.90;;;;;;5096000;28;20028;-70
2023/01/25 11:14:42;;;;;;;;;;;1.60;99.90;;;;;;5094649;28;19912;-70
2023/01/25 11:17:19;;;;;;;;;;;1.60;99.90;;;;;;5094445;28;20263;-70
2023/01/25 11:19:45;;;;;;;;;;;1.60;99.90;;;;;;5095710;28;20348;-70
2023/01/25 11:22:20;;;;;;;;;;;1.60;99.90;;;;;;5094475;28;19919;-71
2023/01/25 11:24:45;;;;;;;;;;;1.60;99.90;;;;;;5095757;28;19951;-70
2023/01/25 11:27:22;;;;;;;;;;;1.60;99.90;;;;;;5094350;28;20367;-70
2023/01/25 11:30:08;;;;;;;;;;;1.60;99.90;;;;;;5094159;28;19974;-71
2023/01/25 11:32:34;;;;;;;;;;;1.60;99.90;;;;;;5094038;28;20367;-70
2023/01/25 11:34:59;;;;;;;;;;;1.60;99.90;;;;;;5095646;28;19916;-70
2023/01/25 11:37:25;;;;;;;;;;;1.60;99.90;;;;;;5095539;28;20286;-70
2023/01/25 11:39:57;;;;;;;;;;;1.60;99.90;;;;;;5094159;28;19919;-70
2023/01/25 11:42:45;;;;;;;;;;;1.60;99.90;;;;;;5095335;28;20404;-70
2023/01/25 11:45:35;;;;;;;;;;;1.70;99.90;;;;;;5094018;28;20351;-70
2023/01/25 11:48:15;;;;;;;;;;;1.70;99.90;;;;;;5093954;28;19912;-70
2023/01/25 11:50:46;;;;;;;;;;;1.70;99.90;;;;;;5094893;28;19920;-70
2023/01/25 11:53:30;;;;;;;;;;;1.60;99.90;;;;;;5095143;28;20349;-70
2023/01/25 11:56:08;;;;;;;;;;;1.70;99.90;;;;;;5093826;28;20283;-70
2023/01/25 11:58:34;;;;;;;;;;;1.70;99.90;;;;;;5095088;28;19912;-70
2023/01/25 12:01:09;;;;;;;;;;;1.70;99.90;;;;;;5092192;28;19984;-69
2023/01/25 12:03:50;;;;;;;;;;;1.70;99.90;;;;;;5092542;28;19919;-70
2023/01/25 12:06:22;;;;;;;;;;;1.70;99.90;;;;;;5093212;28;19938;-70
2023/01/25 12:09:02;;;;;;;;;;;1.70;99.90;;;;;;5094362;28;19947;-70
2023/01/25 12:11:33;;;;;;;;;;;1.60;99.90;;;;;;5090325;28;19920;-70
2023/01/25 12:14:05;;;;;;;;;;;1.60;99.90;;;;;;5091611;28;19923;-70
2023/01/25 12:16:49;;;;;;;;;;;1.60;99.90;;;;;;5092066;28;19912;-69
2023/01/25 12:19:24;;;;;;;;;;;1.60;99.90;;;;;;5093203;28;20032;-70
2023/01/25 12:22:01;;;;;;;;;;;1.50;99.90;;;;;;5092862;28;20327;-69
2023/01/25 12:24:46;;;;;;;;;;;1.60;99.90;;;;;;5091043;28;19981;-70
2023/01/25 12:27:20;;;;;;;;;;;1.60;99.90;;;;;;5092368;28;19919;-70
2023/01/25 12:29:55;;;;;;;;;;;1.60;99.90;;;;;;5092417;28;19927;-70
2023/01/25 12:32:26;;;;;;;;;;;1.60;99.90;;;;;;5094038;28;20313;-70
2023/01/25 12:35:02;;;;;;;;;;;1.60;99.90;;;;;;5094594;28;19916;-70
2023/01/25 12:37:31;;;;;;;;;;;1.50;99.90;;;;;;5092550;28;19912;-70
2023/01/25 12:40:03;;;;;;;;;;;1.60;99.90;;;;;;5094302;28;19912;-69
2023/01/25 12:42:35;;;;;;;;;;;1.60;99.90;;;;;;5094401;28;19912;-70
2023/01/25 12:45:08;;;;;;;;;;;1.60;99.90;;;;;;5093070;28;19987;-70
2023/01/25 12:48:03;;;;;;;;;;;1.60;99.90;;;;;;5093456;28;19912;-70
2023/01/25 12:50:37;;;;;;;;;;;1.50;99.90;;;;;;5080849;28;19920;-69
2023/01/25 12:53:05;;;;;;;;;;;1.60;99.90;;;;;;5097021;28;19918;-70
2023/01/25 12:55:31;;;;;;;;;;;1.60;99.90;;;;;;5098448;28;19918;-70
2023/01/25 12:58:13;;;;;;;;;;;1.70;99.90;;;;;;5096944;28;20267;-69
2023/01/25 13:00:47;;;;;;;;;;;1.70;99.90;;;;;;5097156;28;19920;-70
2023/01/25 13:03:31;;;;;;;;;;;1.60;99.90;;;;;;5097018;28;19966;-70
2023/01/25 13:06:09;;;;;;;;;;;1.60;99.90;;;;;;5098152;28;20003;-70
2023/01/25 13:08:45;;;;;;;;;;;1.60;99.90;;;;;;5096926;28;19912;-70
2023/01/25 13:11:34;;;;;;;;;;;1.60;99.90;;;;;;5098067;28;19920;-70
2023/01/25 13:14:29;;;;;;;;;;;1.60;99.90;;;;;;5088644;28;19958;-69
2023/01/25 13:17:10;;;;;;;;;;;1.70;99.90;;;;;;5083467;28;19947;-70
2023/01/25 13:19:40;;;;;;;;;;;1.70;99.90;;;;;;5097966;28;19961;-71
2023/01/25 13:22:08;;;;;;;;;;;1.70;99.90;;;;;;5096773;28;19912;-70
2023/01/25 13:24:41;;;;;;;;;;;1.70;99.90;;;;;;5097960;28;19916;-70
2023/01/25 13:27:25;;;;;;;;;;;1.70;99.90;;;;;;5097733;28;20360;-69
2023/01/25 13:30:17;;;;;;;;;;;1.70;99.90;;;;;;5097629;28;19920;-69
2023/01/25 13:32:48;;;;;;;;;;;1.70;99.90;;;;;;5095384;28;19912;-70
2023/01/25 13:35:27;;;;;;;;;;;1.80;99.90;;;;;;5096367;28;20853;-69
2023/01/25 13:37:58;;;;;;;;;;;1.80;99.90;;;;;;5097573;28;19912;-69
2023/01/25 13:40:30;;;;;;;;;;;1.70;99.90;;;;;;5093769;28;19958;-67
2023/01/25 13:43:25;;;;;;;;;;;1.80;99.90;;;;;;5094156;28;19920;-68
2023/01/25 13:45:51;;;;;;;;;;;1.80;99.90;;;;;;5080803;28;20014;-67
2023/01/25 13:48:18;;;;;;;;;;;1.80;99.90;;;;;;5095754;28;19912;-68
2023/01/25 13:50:55;;;;;;;;;;;1.80;99.90;;;;;;5090926;28;19927;-69
2023/01/25 13:53:23;;;;;;;;;;;1.90;99.90;;;;;;5095558;28;19963;-70
2023/01/25 13:55:51;;;;;;;;;;;1.80;99.90;;;;;;5096851;28;19912;-70
2023/01/25 13:58:18;;;;;;;;;;;1.80;99.90;;;;;;5095995;28;19912;-70
2023/01/25 14:00:48;;;;;;;;;;;1.70;99.90;;;;;;5094767;28;19947;-69
2023/01/25 14:03:15;;;;;;;;;;;1.80;99.90;;;;;;5095063;28;19912;-69
2023/01/25 14:05:47;;;;;;;;;;;1.80;99.90;;;;;;5093132;28;20007;-70
2023/01/25 14:08:16;;;;;;;;;;;1.90;99.90;;;;;;5095364;28;19912;-70
2023/01/25 14:10:43;;;;;;;;;;;1.90;99.90;;;;;;5095065;28;20402;-69
2023/01/25 14:13:12;;;;;;;;;;;1.90;99.90;;;;;;5093694;28;19995;-69
2023/01/25 14:15:37;;;;;;;;;;;1.80;99.90;;;;;;5093712;28;19951;-69
2023/01/25 14:18:20;;;;;;;;;;;1.80;99.90;;;;;;5093705;28;19955;-69
2023/01/25 14:20:48;;;;;;;;;;;1.80;99.90;;;;;;5094826;28;20371;-69
2023/01/25 14:23:20;;;;;;;;;;;1.80;99.90;;;;;;5093837;28;19912;-69
2023/01/25 14:25:46;;;;;;;;;;;1.80;99.90;;;;;;5094688;28;19912;-69
2023/01/25 14:28:13;;;;;;;;;;;1.80;99.90;;;;;;5094822;28;20259;-69
2023/01/25 14:30:39;;;;;;;;;;;1.80;99.90;;;;;;5094461;28;19928;-69
2023/01/25 14:33:25;;;;;;;;;;;1.90;99.90;;;;;;5096352;28;19958;-70
2023/01/25 14:35:51;;;;;;;;;;;1.90;99.90;;;;;;5092712;28;19912;-69
2023/01/25 14:38:24;;;;;;;;;;;1.90;99.90;;;;;;5094554;28;20390;-69
2023/01/25 14:40:52;;;;;;;;;;;1.80;99.90;;;;;;5094918;28;19913;-69
2023/01/25 14:43:18;;;;;;;;;;;1.80;99.90;;;;;;5092654;28;20497;-69
2023/01/25 14:45:44;;;;;;;;;;;1.80;99.90;;;;;;5094224;28;20003;-69